sensor_id;sensor_type;location;lat;lon;timestamp;temperature;humidity
40868;DHT22;26586;50.708;22.412;2022-12-18T00:01:33;9.30;37.10
40868;DHT22;26586;50.708;22.412;2022-12-18T00:04:02;9.30;37.00
40868;DHT22;26586;50.708;22.412;2022-12-18T00:06:32;9.30;38.00
40868;DHT22;26586;50.708;22.412;2022-12-18T00:09:00;9.30;36.90
40868;DHT22;26586;50.708;22.412;2022-12-18T00:11:30;9.30;36.70
40868;DHT22;26586;50.708;22.412;2022-12-18T00:13:58;9.20;36.90
40868;DHT22;26586;50.708;22.412;2022-12-18T00:16:26;9.20;37.40
40868;DHT22;26586;50.708;22.412;2022-12-18T00:18:55;9.20;37.50
40868;DHT22;26586;50.708;22.412;2022-12-18T00:21:24;9.20;37.40
40868;DHT22;26586;50.708;22.412;2022-12-18T00:23:51;9.20;38.80
40868;DHT22;26586;50.708;22.412;2022-12-18T00:26:19;9.10;37.30
40868;DHT22;26586;50.708;22.412;2022-12-18T00:28:47;9.10;37.10
40868;DHT22;26586;50.708;22.412;2022-12-18T00:31:16;9.10;37.80
40868;DHT22;26586;50.708;22.412;2022-12-18T00:33:43;9.10;37.80
40868;DHT22;26586;50.708;22.412;2022-12-18T00:36:15;9.10;37.10
40868;DHT22;26586;50.708;22.412;2022-12-18T00:38:44;9.10;37.20
40868;DHT22;26586;50.708;22.412;2022-12-18T00:41:11;9.10;37.30
40868;DHT22;26586;50.708;22.412;2022-12-18T00:43:39;9.10;37.50
40868;DHT22;26586;50.708;22.412;2022-12-18T00:46:05;9.00;37.20
40868;DHT22;26586;50.708;22.412;2022-12-18T00:48:32;9.00;38.50
40868;DHT22;26586;50.708;22.412;2022-12-18T00:50:59;9.00;37.80
40868;DHT22;26586;50.708;22.412;2022-12-18T00:53:25;9.00;37.90
40868;DHT22;26586;50.708;22.412;2022-12-18T00:55:51;9.00;38.10
40868;DHT22;26586;50.708;22.412;2022-12-18T00:58:18;8.90;41.50
40868;DHT22;26586;50.708;22.412;2022-12-18T01:00:44;9.00;39.50
40868;DHT22;26586;50.708;22.412;2022-12-18T01:03:13;8.90;37.40
40868;DHT22;26586;50.708;22.412;2022-12-18T01:05:41;8.90;37.10
40868;DHT22;26586;50.708;22.412;2022-12-18T01:08:07;8.90;38.40
40868;DHT22;26586;50.708;22.412;2022-12-18T01:10:33;8.90;37.40
40868;DHT22;26586;50.708;22.412;2022-12-18T01:13:00;8.80;37.80
40868;DHT22;26586;50.708;22.412;2022-12-18T01:15:26;8.80;37.90
40868;DHT22;26586;50.708;22.412;2022-12-18T01:17:53;8.80;37.50
40868;DHT22;26586;50.708;22.412;2022-12-18T01:20:19;8.80;37.50
40868;DHT22;26586;50.708;22.412;2022-12-18T01:22:45;8.80;38.90
40868;DHT22;26586;50.708;22.412;2022-12-18T01:25:11;8.70;38.30
40868;DHT22;26586;50.708;22.412;2022-12-18T01:27:38;8.70;38.40
40868;DHT22;26586;50.708;22.412;2022-12-18T01:30:04;8.70;38.80
40868;DHT22;26586;50.708;22.412;2022-12-18T01:32:31;8.70;38.30
40868;DHT22;26586;50.708;22.412;2022-12-18T01:34:57;8.70;38.40
40868;DHT22;26586;50.708;22.412;2022-12-18T01:37:23;8.70;37.90
40868;DHT22;26586;50.708;22.412;2022-12-18T01:39:50;8.70;38.00
40868;DHT22;26586;50.708;22.412;2022-12-18T01:42:20;8.70;38.40
40868;DHT22;26586;50.708;22.412;2022-12-18T01:47:52;8.70;38.50
40868;DHT22;26586;50.708;22.412;2022-12-18T01:50:21;8.70;38.80
40868;DHT22;26586;50.708;22.412;2022-12-18T01:52:54;8.60;38.80
40868;DHT22;26586;50.708;22.412;2022-12-18T01:55:25;8.60;38.60
40868;DHT22;26586;50.708;22.412;2022-12-18T01:57:57;8.60;38.40
40868;DHT22;26586;50.708;22.412;2022-12-18T02:00:25;8.60;38.80
40868;DHT22;26586;50.708;22.412;2022-12-18T02:02:52;8.60;38.90
40868;DHT22;26586;50.708;22.412;2022-12-18T02:05:26;8.60;42.80
40868;DHT22;26586;50.708;22.412;2022-12-18T02:10:42;8.60;39.50
40868;DHT22;26586;50.708;22.412;2022-12-18T02:18:45;8.60;39.60
40868;DHT22;26586;50.708;22.412;2022-12-18T02:21:48;8.60;39.50
40868;DHT22;26586;50.708;22.412;2022-12-18T02:26:50;8.70;39.60
40868;DHT22;26586;50.708;22.412;2022-12-18T02:29:36;8.60;39.60
40868;DHT22;26586;50.708;22.412;2022-12-18T02:32:08;8.70;39.90
40868;DHT22;26586;50.708;22.412;2022-12-18T02:34:38;8.70;39.60
40868;DHT22;26586;50.708;22.412;2022-12-18T02:37:09;8.70;39.40
40868;DHT22;26586;50.708;22.412;2022-12-18T02:39:39;8.70;39.70
40868;DHT22;26586;50.708;22.412;2022-12-18T02:42:07;8.70;39.90
40868;DHT22;26586;50.708;22.412;2022-12-18T02:44:39;8.70;40.90
40868;DHT22;26586;50.708;22.412;2022-12-18T02:47:10;8.70;40.00
40868;DHT22;26586;50.708;22.412;2022-12-18T03:00:48;8.70;39.90
40868;DHT22;26586;50.708;22.412;2022-12-18T03:03:36;8.80;40.20
40868;DHT22;26586;50.708;22.412;2022-12-18T03:06:08;8.80;40.10
40868;DHT22;26586;50.708;22.412;2022-12-18T03:08:46;8.80;40.20
40868;DHT22;26586;50.708;22.412;2022-12-18T03:11:13;8.80;39.90
40868;DHT22;26586;50.708;22.412;2022-12-18T03:13:49;8.80;39.90
40868;DHT22;26586;50.708;22.412;2022-12-18T03:16:21;8.90;40.00
40868;DHT22;26586;50.708;22.412;2022-12-18T03:18:55;8.90;39.60
40868;DHT22;26586;50.708;22.412;2022-12-18T03:21:30;8.90;39.90
40868;DHT22;26586;50.708;22.412;2022-12-18T03:23:59;8.90;39.90
40868;DHT22;26586;50.708;22.412;2022-12-18T03:26:27;9.00;40.00
40868;DHT22;26586;50.708;22.412;2022-12-18T03:29:00;9.00;39.70
40868;DHT22;26586;50.708;22.412;2022-12-18T03:31:29;9.00;39.40
40868;DHT22;26586;50.708;22.412;2022-12-18T03:34:03;9.00;39.50
40868;DHT22;26586;50.708;22.412;2022-12-18T03:36:30;9.00;39.50
40868;DHT22;26586;50.708;22.412;2022-12-18T03:38:57;9.10;39.50
40868;DHT22;26586;50.708;22.412;2022-12-18T03:41:48;9.10;39.50
40868;DHT22;26586;50.708;22.412;2022-12-18T03:44:39;9.10;39.50
40868;DHT22;26586;50.708;22.412;2022-12-18T03:47:39;9.10;39.50
40868;DHT22;26586;50.708;22.412;2022-12-18T03:50:12;9.20;39.70
40868;DHT22;26586;50.708;22.412;2022-12-18T03:55:27;9.20;39.90
40868;DHT22;26586;50.708;22.412;2022-12-18T03:57:55;9.30;39.70
40868;DHT22;26586;50.708;22.412;2022-12-18T04:00:21;9.30;39.80
40868;DHT22;26586;50.708;22.412;2022-12-18T04:02:52;9.30;39.30
40868;DHT22;26586;50.708;22.412;2022-12-18T04:05:21;9.30;39.50
40868;DHT22;26586;50.708;22.412;2022-12-18T04:07:49;9.30;39.60
40868;DHT22;26586;50.708;22.412;2022-12-18T04:10:16;9.30;39.50
40868;DHT22;26586;50.708;22.412;2022-12-18T04:12:43;9.40;40.10
40868;DHT22;26586;50.708;22.412;2022-12-18T04:15:11;9.40;38.90
40868;DHT22;26586;50.708;22.412;2022-12-18T04:17:38;9.40;38.90
40868;DHT22;26586;50.708;22.412;2022-12-18T04:20:05;9.40;38.70
40868;DHT22;26586;50.708;22.412;2022-12-18T04:22:31;9.40;38.90
40868;DHT22;26586;50.708;22.412;2022-12-18T04:24:58;9.40;39.10
40868;DHT22;26586;50.708;22.412;2022-12-18T04:27:24;9.40;39.40
40868;DHT22;26586;50.708;22.412;2022-12-18T04:29:50;9.50;39.30
40868;DHT22;26586;50.708;22.412;2022-12-18T04:32:16;9.50;39.50
40868;DHT22;26586;50.708;22.412;2022-12-18T04:34:42;9.50;38.80
40868;DHT22;26586;50.708;22.412;2022-12-18T04:37:09;9.50;39.10
40868;DHT22;26586;50.708;22.412;2022-12-18T04:39:35;9.50;39.00
40868;DHT22;26586;50.708;22.412;2022-12-18T04:42:01;9.50;38.90
40868;DHT22;26586;50.708;22.412;2022-12-18T04:44:28;9.50;39.40
40868;DHT22;26586;50.708;22.412;2022-12-18T04:46:54;9.60;42.10
40868;DHT22;26586;50.708;22.412;2022-12-18T04:49:20;9.60;41.20
40868;DHT22;26586;50.708;22.412;2022-12-18T04:51:46;9.60;39.30
40868;DHT22;26586;50.708;22.412;2022-12-18T04:54:13;9.60;39.10
40868;DHT22;26586;50.708;22.412;2022-12-18T04:56:39;9.60;38.90
40868;DHT22;26586;50.708;22.412;2022-12-18T04:59:05;9.60;39.60
40868;DHT22;26586;50.708;22.412;2022-12-18T05:01:31;9.60;39.20
40868;DHT22;26586;50.708;22.412;2022-12-18T05:03:58;9.60;38.70
40868;DHT22;26586;50.708;22.412;2022-12-18T05:06:24;9.60;38.70
40868;DHT22;26586;50.708;22.412;2022-12-18T05:08:50;9.60;39.90
40868;DHT22;26586;50.708;22.412;2022-12-18T05:11:16;9.60;39.00
40868;DHT22;26586;50.708;22.412;2022-12-18T05:13:44;9.70;43.40
40868;DHT22;26586;50.708;22.412;2022-12-18T05:16:10;9.70;39.50
40868;DHT22;26586;50.708;22.412;2022-12-18T05:18:37;9.70;39.30
40868;DHT22;26586;50.708;22.412;2022-12-18T05:21:03;9.70;39.60
40868;DHT22;26586;50.708;22.412;2022-12-18T05:23:30;9.70;39.10
40868;DHT22;26586;50.708;22.412;2022-12-18T05:25:59;9.70;41.20
40868;DHT22;26586;50.708;22.412;2022-12-18T05:28:27;9.70;39.30
40868;DHT22;26586;50.708;22.412;2022-12-18T05:30:56;9.70;39.00
40868;DHT22;26586;50.708;22.412;2022-12-18T05:33:24;9.70;40.20
40868;DHT22;26586;50.708;22.412;2022-12-18T05:35:55;9.80;39.50
40868;DHT22;26586;50.708;22.412;2022-12-18T05:38:24;9.80;39.30
40868;DHT22;26586;50.708;22.412;2022-12-18T05:40:51;9.80;38.90
40868;DHT22;26586;50.708;22.412;2022-12-18T05:43:19;9.80;40.20
40868;DHT22;26586;50.708;22.412;2022-12-18T05:45:45;9.80;39.40
40868;DHT22;26586;50.708;22.412;2022-12-18T05:48:12;9.80;40.40
40868;DHT22;26586;50.708;22.412;2022-12-18T05:50:40;9.90;39.30
40868;DHT22;26586;50.708;22.412;2022-12-18T05:53:07;9.90;39.20
40868;DHT22;26586;50.708;22.412;2022-12-18T05:55:35;9.90;40.20
40868;DHT22;26586;50.708;22.412;2022-12-18T05:58:02;10.00;39.60
40868;DHT22;26586;50.708;22.412;2022-12-18T06:00:29;10.00;39.30
40868;DHT22;26586;50.708;22.412;2022-12-18T06:02:56;10.00;38.90
40868;DHT22;26586;50.708;22.412;2022-12-18T06:05:22;10.00;39.00
40868;DHT22;26586;50.708;22.412;2022-12-18T06:07:48;10.00;39.40
40868;DHT22;26586;50.708;22.412;2022-12-18T06:10:14;10.10;39.60
40868;DHT22;26586;50.708;22.412;2022-12-18T06:12:41;10.10;39.20
40868;DHT22;26586;50.708;22.412;2022-12-18T06:15:07;10.10;39.60
40868;DHT22;26586;50.708;22.412;2022-12-18T06:17:34;10.20;39.30
40868;DHT22;26586;50.708;22.412;2022-12-18T06:20:00;10.20;38.70
40868;DHT22;26586;50.708;22.412;2022-12-18T06:22:27;10.20;38.40
40868;DHT22;26586;50.708;22.412;2022-12-18T06:24:53;10.20;38.40
40868;DHT22;26586;50.708;22.412;2022-12-18T06:27:20;10.20;38.10
40868;DHT22;26586;50.708;22.412;2022-12-18T06:29:46;10.20;39.40
40868;DHT22;26586;50.708;22.412;2022-12-18T06:32:12;10.20;38.80
40868;DHT22;26586;50.708;22.412;2022-12-18T06:34:38;10.20;38.60
40868;DHT22;26586;50.708;22.412;2022-12-18T06:37:05;10.20;38.10
40868;DHT22;26586;50.708;22.412;2022-12-18T06:39:31;10.30;38.80
40868;DHT22;26586;50.708;22.412;2022-12-18T06:41:57;10.30;38.40
40868;DHT22;26586;50.708;22.412;2022-12-18T06:44:23;10.30;38.20
40868;DHT22;26586;50.708;22.412;2022-12-18T06:46:50;10.30;38.10
40868;DHT22;26586;50.708;22.412;2022-12-18T06:49:16;10.30;39.10
40868;DHT22;26586;50.708;22.412;2022-12-18T06:51:42;10.30;38.60
40868;DHT22;26586;50.708;22.412;2022-12-18T06:54:08;10.40;38.40
40868;DHT22;26586;50.708;22.412;2022-12-18T06:56:35;10.40;39.70
40868;DHT22;26586;50.708;22.412;2022-12-18T06:59:01;10.40;44.50
40868;DHT22;26586;50.708;22.412;2022-12-18T07:01:27;10.40;38.80
40868;DHT22;26586;50.708;22.412;2022-12-18T07:03:55;10.40;38.40
40868;DHT22;26586;50.708;22.412;2022-12-18T07:06:23;10.40;38.10
40868;DHT22;26586;50.708;22.412;2022-12-18T07:08:51;10.40;37.80
40868;DHT22;26586;50.708;22.412;2022-12-18T07:11:18;10.40;37.70
40868;DHT22;26586;50.708;22.412;2022-12-18T07:13:45;10.40;37.70
40868;DHT22;26586;50.708;22.412;2022-12-18T07:16:17;10.40;40.60
40868;DHT22;26586;50.708;22.412;2022-12-18T07:18:44;10.40;38.10
40868;DHT22;26586;50.708;22.412;2022-12-18T07:21:13;10.50;38.10
40868;DHT22;26586;50.708;22.412;2022-12-18T07:23:39;10.40;37.80
40868;DHT22;26586;50.708;22.412;2022-12-18T07:26:08;10.40;37.60
40868;DHT22;26586;50.708;22.412;2022-12-18T07:28:36;10.50;37.90
40868;DHT22;26586;50.708;22.412;2022-12-18T07:31:14;10.40;37.80
40868;DHT22;26586;50.708;22.412;2022-12-18T07:33:42;10.40;37.90
40868;DHT22;26586;50.708;22.412;2022-12-18T07:36:09;10.40;37.80
40868;DHT22;26586;50.708;22.412;2022-12-18T07:38:36;10.40;37.70
40868;DHT22;26586;50.708;22.412;2022-12-18T07:41:13;10.40;37.80
40868;DHT22;26586;50.708;22.412;2022-12-18T07:43:40;10.40;38.60
40868;DHT22;26586;50.708;22.412;2022-12-18T07:46:08;10.50;38.00
40868;DHT22;26586;50.708;22.412;2022-12-18T07:48:35;10.50;37.90
40868;DHT22;26586;50.708;22.412;2022-12-18T07:51:04;10.40;37.50
40868;DHT22;26586;50.708;22.412;2022-12-18T07:53:31;10.50;37.60
40868;DHT22;26586;50.708;22.412;2022-12-18T07:56:00;10.50;37.90
40868;DHT22;26586;50.708;22.412;2022-12-18T07:58:26;10.50;37.50
40868;DHT22;26586;50.708;22.412;2022-12-18T08:00:52;10.50;37.20
40868;DHT22;26586;50.708;22.412;2022-12-18T08:03:19;10.50;37.30
40868;DHT22;26586;50.708;22.412;2022-12-18T08:05:45;10.50;38.40
40868;DHT22;26586;50.708;22.412;2022-12-18T08:08:11;10.50;37.10
40868;DHT22;26586;50.708;22.412;2022-12-18T08:10:38;10.50;39.10
40868;DHT22;26586;50.708;22.412;2022-12-18T08:13:05;10.50;37.20
40868;DHT22;26586;50.708;22.412;2022-12-18T08:15:31;10.60;36.80
40868;DHT22;26586;50.708;22.412;2022-12-18T08:17:57;10.60;36.90
40868;DHT22;26586;50.708;22.412;2022-12-18T08:20:23;10.50;44.50
40868;DHT22;26586;50.708;22.412;2022-12-18T08:22:49;10.60;39.70
40868;DHT22;26586;50.708;22.412;2022-12-18T08:25:16;10.60;39.40
40868;DHT22;26586;50.708;22.412;2022-12-18T08:27:42;10.70;37.40
40868;DHT22;26586;50.708;22.412;2022-12-18T08:30:09;10.70;36.70
40868;DHT22;26586;50.708;22.412;2022-12-18T08:32:35;10.70;36.30
40868;DHT22;26586;50.708;22.412;2022-12-18T08:35:02;10.60;38.10
40868;DHT22;26586;50.708;22.412;2022-12-18T08:37:28;10.60;36.50
40868;DHT22;26586;50.708;22.412;2022-12-18T08:39:55;10.70;37.60
40868;DHT22;26586;50.708;22.412;2022-12-18T08:42:21;10.70;41.80
40868;DHT22;26586;50.708;22.412;2022-12-18T08:45:06;10.70;37.10
40868;DHT22;26586;50.708;22.412;2022-12-18T08:47:34;10.70;36.30
40868;DHT22;26586;50.708;22.412;2022-12-18T08:50:00;10.70;36.90
40868;DHT22;26586;50.708;22.412;2022-12-18T08:52:26;10.70;40.10
40868;DHT22;26586;50.708;22.412;2022-12-18T08:54:54;10.70;51.40
40868;DHT22;26586;50.708;22.412;2022-12-18T08:57:20;10.80;49.70
40868;DHT22;26586;50.708;22.412;2022-12-18T08:59:46;10.80;38.50
40868;DHT22;26586;50.708;22.412;2022-12-18T09:02:14;10.90;37.40
40868;DHT22;26586;50.708;22.412;2022-12-18T09:04:40;10.80;36.80
40868;DHT22;26586;50.708;22.412;2022-12-18T09:07:07;10.90;42.40
40868;DHT22;26586;50.708;22.412;2022-12-18T09:09:33;10.80;37.00
40868;DHT22;26586;50.708;22.412;2022-12-18T09:11:59;10.80;38.60
40868;DHT22;26586;50.708;22.412;2022-12-18T09:14:28;10.90;37.60
40868;DHT22;26586;50.708;22.412;2022-12-18T09:16:54;10.90;38.20
40868;DHT22;26586;50.708;22.412;2022-12-18T09:19:20;10.90;36.40
40868;DHT22;26586;50.708;22.412;2022-12-18T09:21:47;10.90;36.30
40868;DHT22;26586;50.708;22.412;2022-12-18T09:24:13;10.90;35.50
40868;DHT22;26586;50.708;22.412;2022-12-18T09:26:40;10.80;35.50
40868;DHT22;26586;50.708;22.412;2022-12-18T09:29:06;10.80;35.50
40868;DHT22;26586;50.708;22.412;2022-12-18T09:31:38;10.80;38.00
40868;DHT22;26586;50.708;22.412;2022-12-18T09:34:05;10.90;37.20
40868;DHT22;26586;50.708;22.412;2022-12-18T09:36:31;10.90;35.60
40868;DHT22;26586;50.708;22.412;2022-12-18T09:38:58;10.90;38.80
40868;DHT22;26586;50.708;22.412;2022-12-18T09:41:36;10.90;35.90
40868;DHT22;26586;50.708;22.412;2022-12-18T09:44:22;10.90;35.20
40868;DHT22;26586;50.708;22.412;2022-12-18T09:46:56;10.90;35.00
40868;DHT22;26586;50.708;22.412;2022-12-18T09:49:28;10.80;36.50
40868;DHT22;26586;50.708;22.412;2022-12-18T09:52:09;10.90;37.00
40868;DHT22;26586;50.708;22.412;2022-12-18T09:54:49;10.90;35.60
40868;DHT22;26586;50.708;22.412;2022-12-18T09:57:19;10.90;38.30
40868;DHT22;26586;50.708;22.412;2022-12-18T09:59:56;10.90;35.40
40868;DHT22;26586;50.708;22.412;2022-12-18T10:02:26;10.90;35.50
40868;DHT22;26586;50.708;22.412;2022-12-18T10:05:13;10.90;35.60
40868;DHT22;26586;50.708;22.412;2022-12-18T10:07:53;10.90;36.00
40868;DHT22;26586;50.708;22.412;2022-12-18T10:13:01;10.90;35.10
40868;DHT22;26586;50.708;22.412;2022-12-18T10:15:36;10.90;35.60
40868;DHT22;26586;50.708;22.412;2022-12-18T10:21:20;10.90;35.10
40868;DHT22;26586;50.708;22.412;2022-12-18T10:26:41;11.00;35.60
40868;DHT22;26586;50.708;22.412;2022-12-18T10:29:14;11.00;34.90
40868;DHT22;26586;50.708;22.412;2022-12-18T10:31:43;11.00;35.50
40868;DHT22;26586;50.708;22.412;2022-12-18T10:34:10;11.00;34.90
40868;DHT22;26586;50.708;22.412;2022-12-18T10:36:37;11.00;36.30
40868;DHT22;26586;50.708;22.412;2022-12-18T10:39:21;11.00;36.20
40868;DHT22;26586;50.708;22.412;2022-12-18T10:41:56;11.10;35.40
40868;DHT22;26586;50.708;22.412;2022-12-18T10:44:34;11.00;34.60
40868;DHT22;26586;50.708;22.412;2022-12-18T10:47:10;11.10;35.30
40868;DHT22;26586;50.708;22.412;2022-12-18T10:49:50;11.00;34.90
40868;DHT22;26586;50.708;22.412;2022-12-18T10:52:25;11.00;35.20
40868;DHT22;26586;50.708;22.412;2022-12-18T10:54:59;11.00;35.10
40868;DHT22;26586;50.708;22.412;2022-12-18T10:57:37;11.10;35.50
40868;DHT22;26586;50.708;22.412;2022-12-18T11:00:25;11.10;36.10
40868;DHT22;26586;50.708;22.412;2022-12-18T11:02:51;11.10;38.40
40868;DHT22;26586;50.708;22.412;2022-12-18T11:05:32;11.20;45.80
40868;DHT22;26586;50.708;22.412;2022-12-18T11:08:00;11.30;39.40
40868;DHT22;26586;50.708;22.412;2022-12-18T11:10:37;11.30;35.60
40868;DHT22;26586;50.708;22.412;2022-12-18T11:15:43;11.30;34.10
40868;DHT22;26586;50.708;22.412;2022-12-18T11:18:23;11.20;44.70
40868;DHT22;26586;50.708;22.412;2022-12-18T11:20:52;11.20;35.70
40868;DHT22;26586;50.708;22.412;2022-12-18T11:23:21;11.30;34.50
40868;DHT22;26586;50.708;22.412;2022-12-18T11:25:59;11.30;33.80
40868;DHT22;26586;50.708;22.412;2022-12-18T11:33:52;11.20;37.20
40868;DHT22;26586;50.708;22.412;2022-12-18T11:36:21;11.30;36.10
40868;DHT22;26586;50.708;22.412;2022-12-18T11:38:50;11.30;35.50
40868;DHT22;26586;50.708;22.412;2022-12-18T11:41:22;11.30;38.20
40868;DHT22;26586;50.708;22.412;2022-12-18T11:44:13;11.30;34.90
40868;DHT22;26586;50.708;22.412;2022-12-18T11:46:55;11.30;34.30
40868;DHT22;26586;50.708;22.412;2022-12-18T11:49:32;11.30;34.80
40868;DHT22;26586;50.708;22.412;2022-12-18T11:52:16;11.30;34.50
40868;DHT22;26586;50.708;22.412;2022-12-18T11:54:44;11.30;34.10
40868;DHT22;26586;50.708;22.412;2022-12-18T12:00:04;11.30;33.70
40868;DHT22;26586;50.708;22.412;2022-12-18T12:08:39;11.30;33.70
40868;DHT22;26586;50.708;22.412;2022-12-18T12:16:58;11.30;35.10
40868;DHT22;26586;50.708;22.412;2022-12-18T12:19:42;11.30;34.10
40868;DHT22;26586;50.708;22.412;2022-12-18T12:30:45;11.40;33.90
40868;DHT22;26586;50.708;22.412;2022-12-18T12:39:08;11.30;33.60
40868;DHT22;26586;50.708;22.412;2022-12-18T12:41:20;11.30;34.00
40868;DHT22;26586;50.708;22.412;2022-12-18T12:44:12;11.30;33.90
40868;DHT22;26586;50.708;22.412;2022-12-18T12:46:41;11.30;33.70
40868;DHT22;26586;50.708;22.412;2022-12-18T12:49:15;11.30;33.70
40868;DHT22;26586;50.708;22.412;2022-12-18T12:51:50;11.30;33.80
40868;DHT22;26586;50.708;22.412;2022-12-18T12:54:21;11.30;34.20
40868;DHT22;26586;50.708;22.412;2022-12-18T12:57:26;11.30;34.00
40868;DHT22;26586;50.708;22.412;2022-12-18T13:00:13;11.30;33.90
40868;DHT22;26586;50.708;22.412;2022-12-18T13:03:00;11.30;33.50
40868;DHT22;26586;50.708;22.412;2022-12-18T13:08:09;11.30;34.00
40868;DHT22;26586;50.708;22.412;2022-12-18T13:10:39;11.30;34.20
40868;DHT22;26586;50.708;22.412;2022-12-18T13:13:06;11.30;33.70
40868;DHT22;26586;50.708;22.412;2022-12-18T13:15:46;11.30;33.70
40868;DHT22;26586;50.708;22.412;2022-12-18T13:18:14;11.30;33.90
40868;DHT22;26586;50.708;22.412;2022-12-18T13:21:09;11.30;33.80
40868;DHT22;26586;50.708;22.412;2022-12-18T13:23:36;11.30;33.70
40868;DHT22;26586;50.708;22.412;2022-12-18T13:31:00;11.30;33.60
40868;DHT22;26586;50.708;22.412;2022-12-18T13:33:36;11.30;33.50
40868;DHT22;26586;50.708;22.412;2022-12-18T13:45:00;11.30;33.30
40868;DHT22;26586;50.708;22.412;2022-12-18T13:47:35;11.30;33.70
40868;DHT22;26586;50.708;22.412;2022-12-18T13:50:21;11.30;33.70
40868;DHT22;26586;50.708;22.412;2022-12-18T13:52:49;11.30;33.60
40868;DHT22;26586;50.708;22.412;2022-12-18T13:55:18;11.30;33.60
40868;DHT22;26586;50.708;22.412;2022-12-18T13:57:46;11.30;33.60
40868;DHT22;26586;50.708;22.412;2022-12-18T14:00:29;11.30;33.90
40868;DHT22;26586;50.708;22.412;2022-12-18T14:02:57;11.30;33.80
40868;DHT22;26586;50.708;22.412;2022-12-18T14:05:36;11.30;33.70
40868;DHT22;26586;50.708;22.412;2022-12-18T14:08:11;11.40;33.90
40868;DHT22;26586;50.708;22.412;2022-12-18T14:10:46;11.40;33.60
40868;DHT22;26586;50.708;22.412;2022-12-18T14:15:53;11.40;33.90
40868;DHT22;26586;50.708;22.412;2022-12-18T14:18:25;11.40;34.10
40868;DHT22;26586;50.708;22.412;2022-12-18T14:20:57;11.40;34.10
40868;DHT22;26586;50.708;22.412;2022-12-18T14:28:45;11.40;33.40
40868;DHT22;26586;50.708;22.412;2022-12-18T14:31:29;11.40;33.00
40868;DHT22;26586;50.708;22.412;2022-12-18T14:33:56;11.40;32.80
40868;DHT22;26586;50.708;22.412;2022-12-18T14:36:27;11.40;33.00
40868;DHT22;26586;50.708;22.412;2022-12-18T14:38:57;11.40;32.90
40868;DHT22;26586;50.708;22.412;2022-12-18T14:41:25;11.40;32.80
40868;DHT22;26586;50.708;22.412;2022-12-18T14:43:53;11.40;32.80
40868;DHT22;26586;50.708;22.412;2022-12-18T14:46:37;11.40;32.80
40868;DHT22;26586;50.708;22.412;2022-12-18T14:49:19;11.30;32.80
40868;DHT22;26586;50.708;22.412;2022-12-18T14:51:52;11.30;32.90
40868;DHT22;26586;50.708;22.412;2022-12-18T14:54:20;11.30;33.60
40868;DHT22;26586;50.708;22.412;2022-12-18T14:56:49;11.30;32.80
40868;DHT22;26586;50.708;22.412;2022-12-18T14:59:24;11.30;33.00
40868;DHT22;26586;50.708;22.412;2022-12-18T15:01:56;11.30;32.90
40868;DHT22;26586;50.708;22.412;2022-12-18T15:04:38;11.20;32.80
40868;DHT22;26586;50.708;22.412;2022-12-18T15:07:09;11.20;32.60
40868;DHT22;26586;50.708;22.412;2022-12-18T15:09:36;11.20;32.60
40868;DHT22;26586;50.708;22.412;2022-12-18T15:12:03;11.20;33.00
40868;DHT22;26586;50.708;22.412;2022-12-18T15:16:58;11.20;32.90
40868;DHT22;26586;50.708;22.412;2022-12-18T15:19:34;11.10;32.80
40868;DHT22;26586;50.708;22.412;2022-12-18T15:22:01;11.10;32.80
40868;DHT22;26586;50.708;22.412;2022-12-18T15:24:31;11.10;32.90
40868;DHT22;26586;50.708;22.412;2022-12-18T15:26:58;11.10;32.80
40868;DHT22;26586;50.708;22.412;2022-12-18T15:29:25;11.10;32.90
40868;DHT22;26586;50.708;22.412;2022-12-18T15:32:04;11.00;32.80
40868;DHT22;26586;50.708;22.412;2022-12-18T15:34:32;11.10;33.10
40868;DHT22;26586;50.708;22.412;2022-12-18T15:36:59;11.10;34.10
40868;DHT22;26586;50.708;22.412;2022-12-18T15:39:26;11.10;33.40
40868;DHT22;26586;50.708;22.412;2022-12-18T15:41:52;11.00;33.50
40868;DHT22;26586;50.708;22.412;2022-12-18T15:44:37;11.00;33.80
40868;DHT22;26586;50.708;22.412;2022-12-18T15:47:07;11.00;33.80
40868;DHT22;26586;50.708;22.412;2022-12-18T15:49:34;11.00;34.00
40868;DHT22;26586;50.708;22.412;2022-12-18T15:52:01;11.00;33.90
40868;DHT22;26586;50.708;22.412;2022-12-18T15:54:28;11.00;33.60
40868;DHT22;26586;50.708;22.412;2022-12-18T15:57:13;11.00;33.90
40868;DHT22;26586;50.708;22.412;2022-12-18T15:59:56;11.10;34.10
40868;DHT22;26586;50.708;22.412;2022-12-18T16:02:24;11.10;33.70
40868;DHT22;26586;50.708;22.412;2022-12-18T16:04:52;11.10;33.80
40868;DHT22;26586;50.708;22.412;2022-12-18T16:07:19;11.10;33.70
40868;DHT22;26586;50.708;22.412;2022-12-18T16:09:46;11.10;34.10
40868;DHT22;26586;50.708;22.412;2022-12-18T16:12:18;11.10;34.20
40868;DHT22;26586;50.708;22.412;2022-12-18T16:14:45;11.20;34.10
40868;DHT22;26586;50.708;22.412;2022-12-18T16:17:12;11.20;41.50
40868;DHT22;26586;50.708;22.412;2022-12-18T16:19:39;11.20;34.70
40868;DHT22;26586;50.708;22.412;2022-12-18T16:22:19;11.30;33.80
40868;DHT22;26586;50.708;22.412;2022-12-18T16:24:47;11.30;34.20
40868;DHT22;26586;50.708;22.412;2022-12-18T16:27:13;11.30;34.00
40868;DHT22;26586;50.708;22.412;2022-12-18T16:29:39;11.30;33.50
40868;DHT22;26586;50.708;22.412;2022-12-18T16:32:06;11.30;32.70
40868;DHT22;26586;50.708;22.412;2022-12-18T16:34:33;11.30;32.70
40868;DHT22;26586;50.708;22.412;2022-12-18T16:37:02;11.30;33.10
40868;DHT22;26586;50.708;22.412;2022-12-18T16:39:28;11.30;33.60
40868;DHT22;26586;50.708;22.412;2022-12-18T16:41:56;11.30;34.00
40868;DHT22;26586;50.708;22.412;2022-12-18T16:44:22;11.30;34.00
40868;DHT22;26586;50.708;22.412;2022-12-18T16:46:48;11.40;34.70
40868;DHT22;26586;50.708;22.412;2022-12-18T16:49:16;11.40;33.90
40868;DHT22;26586;50.708;22.412;2022-12-18T16:51:43;11.40;33.60
40868;DHT22;26586;50.708;22.412;2022-12-18T16:54:11;11.40;34.50
40868;DHT22;26586;50.708;22.412;2022-12-18T16:56:38;11.40;34.00
40868;DHT22;26586;50.708;22.412;2022-12-18T16:59:05;11.40;33.30
40868;DHT22;26586;50.708;22.412;2022-12-18T17:01:31;11.40;32.80
40868;DHT22;26586;50.708;22.412;2022-12-18T17:04:03;11.40;33.20
40868;DHT22;26586;50.708;22.412;2022-12-18T17:06:30;11.40;33.70
40868;DHT22;26586;50.708;22.412;2022-12-18T17:08:58;11.40;33.70
40868;DHT22;26586;50.708;22.412;2022-12-18T17:11:26;11.40;33.40
40868;DHT22;26586;50.708;22.412;2022-12-18T17:13:53;11.40;33.60
40868;DHT22;26586;50.708;22.412;2022-12-18T17:16:20;11.40;33.80
40868;DHT22;26586;50.708;22.412;2022-12-18T17:18:47;11.40;33.40